Time;durP1;ratioP1;P1;durP2;ratioP2;P2;SDS_P1;SDS_P2;PMS_P1;PMS_P2;Temp;Humidity;BMP_temperature;BMP_pressure;BME280_temperature;BME280_humidity;BME280_pressure;Samples;Min_cycle;Max_cycle;Signal;HPM_P1;HPM_P2
2022/04/13 00:01:34;;;;;;;;;;;;;;;4.37;59.19;98573.47;1644586;87;22495;-83
2022/04/13 00:04:00;;;;;;;;;;;;;;;4.30;59.41;98576.41;1644617;87;26083;-83
2022/04/13 00:06:26;;;;;;;;;;;;;;;4.19;59.63;98575.12;1644264;87;24503;-83
2022/04/13 00:08:55;;;;;;;;;;;;;;;4.15;59.84;98574.83;1645097;87;20716;-86
2022/04/13 00:11:20;;;;;;;;;;;;;;;4.11;60.11;98573.28;1644657;87;25135;-86
2022/04/13 00:13:46;;;;;;;;;;;;;;;4.24;60.54;98577.51;1644736;87;20877;-86
2022/04/13 00:16:12;;;;;;;;;;;;;;;4.29;60.86;98574.27;1644973;87;21061;-86
2022/04/13 00:18:38;;;;;;;;;;;;;;;4.26;61.08;98573.53;1644904;87;20284;-83
2022/04/13 00:21:05;;;;;;;;;;;;;;;4.39;61.46;98572.97;1644769;87;20195;-83
2022/04/13 00:23:31;;;;;;;;;;;;;;;4.52;61.81;98579.31;1645154;87;20743;-86
2022/04/13 00:26:01;;;;;;;;;;;;;;;4.53;61.99;98580.97;1644691;86;21984;-86
2022/04/13 00:28:27;;;;;;;;;;;;;;;4.58;62.21;98579.50;1644769;87;26031;-85
2022/04/13 00:30:53;;;;;;;;;;;;;;;4.60;62.40;98580.26;1644668;87;24436;-84
2022/04/13 00:33:19;;;;;;;;;;;;;;;4.69;62.61;98581.63;1644952;86;20775;-83
2022/04/13 00:35:44;;;;;;;;;;;;;;;4.69;62.79;98586.33;1644843;87;20773;-83
2022/04/13 00:38:12;;;;;;;;;;;;;;;4.42;62.66;98584.48;1644831;87;20249;-83
2022/04/13 00:40:43;;;;;;;;;;;;;;;4.32;62.69;98585.78;1644961;87;26061;-85
2022/04/13 00:43:08;;;;;;;;;;;;;;;4.32;62.85;98580.59;1643834;87;25183;-86
2022/04/13 00:45:34;;;;;;;;;;;;;;;4.36;63.04;98577.00;1644838;87;20273;-85
2022/04/13 00:48:02;;;;;;;;;;;;;;;4.41;63.21;98577.64;1644339;87;25755;-85
2022/04/13 00:50:29;;;;;;;;;;;;;;;4.38;63.28;98570.43;1644826;87;22785;-85
2022/04/13 00:52:58;;;;;;;;;;;;;;;4.43;63.47;98569.33;1641461;87;26068;-86
2022/04/13 00:55:25;;;;;;;;;;;;;;;4.49;63.61;98570.81;1606070;89;24563;-82
2022/04/13 00:57:52;;;;;;;;;;;;;;;4.44;63.66;98577.49;1607790;89;20209;-82
2022/04/13 01:00:19;;;;;;;;;;;;;;;4.29;63.59;98578.16;1607749;89;24965;-84
2022/04/13 01:02:47;;;;;;;;;;;;;;;4.18;63.63;98582.94;1607968;89;22592;-84
2022/04/13 01:05:13;;;;;;;;;;;;;;;4.22;63.83;98578.02;1607797;89;26047;-85
2022/04/13 01:07:42;;;;;;;;;;;;;;;4.13;63.88;98578.41;1607714;89;25467;-85
2022/04/13 01:10:09;;;;;;;;;;;;;;;4.04;64.00;98571.00;1607717;89;20775;-85
2022/04/13 01:12:35;;;;;;;;;;;;;;;4.11;64.27;98573.28;1607861;89;25036;-84
2022/04/13 01:15:04;;;;;;;;;;;;;;;4.19;64.52;98571.23;1607969;89;21992;-84
2022/04/13 01:17:30;;;;;;;;;;;;;;;4.22;64.67;98568.95;1607937;87;25490;-84
2022/04/13 01:19:57;;;;;;;;;;;;;;;4.33;64.94;98573.67;1607977;89;25099;-85
2022/04/13 01:22:30;;;;;;;;;;;;;;;4.39;65.12;98571.67;1608170;89;20289;-85
2022/04/13 01:24:56;;;;;;;;;;;;;;;4.39;65.24;98570.38;1607732;89;25149;-82
2022/04/13 01:27:26;;;;;;;;;;;;;;;4.42;65.41;98569.41;1608025;89;21988;-85
2022/04/13 01:29:54;;;;;;;;;;;;;;;4.48;65.61;98560.05;1607768;89;25989;-85
2022/04/13 01:32:21;;;;;;;;;;;;;;;4.49;65.70;98560.00;1607809;89;24488;-85
2022/04/13 01:34:52;;;;;;;;;;;;;;;4.56;65.84;98557.53;1606379;89;20220;-84
2022/04/13 01:37:19;;;;;;;;;;;;;;;4.58;65.92;98553.59;1607522;89;25043;-86
2022/04/13 01:39:48;;;;;;;;;;;;;;;4.57;65.99;98550.16;1607538;87;22068;-85
2022/04/13 01:42:17;;;;;;;;;;;;;;;4.48;65.96;98549.69;1606174;89;26220;-85
2022/04/13 01:44:52;;;;;;;;;;;;;;;4.43;65.99;98551.19;1580522;89;20350;-85
2022/04/13 01:47:17;;;;;;;;;;;;;;;4.37;65.99;98556.62;1608037;89;20283;-85
2022/04/13 01:49:43;;;;;;;;;;;;;;;4.28;66.01;98548.42;1607859;89;20754;-85
2022/04/13 01:52:10;;;;;;;;;;;;;;;4.15;65.91;98556.70;1607840;89;20791;-85
2022/04/13 01:54:38;;;;;;;;;;;;;;;4.03;65.88;98555.95;1623697;88;26116;-85
2022/04/13 01:57:05;;;;;;;;;;;;;;;3.91;65.90;98550.42;1632687;88;24564;-85
2022/04/13 01:59:31;;;;;;;;;;;;;;;3.87;66.01;98549.72;1632907;88;20266;-85
2022/04/13 02:01:56;;;;;;;;;;;;;;;3.93;66.29;98546.84;1632825;88;20246;-85
2022/04/13 02:04:24;;;;;;;;;;;;;;;4.00;66.56;98551.33;1631317;88;22094;-85
2022/04/13 02:06:50;;;;;;;;;;;;;;;4.08;66.87;98552.70;1632626;88;25979;-85
2022/04/13 02:09:17;;;;;;;;;;;;;;;3.98;66.89;98553.97;1632765;88;25287;-84
2022/04/13 02:11:43;;;;;;;;;;;;;;;3.87;66.89;98550.17;1633009;88;20213;-85
2022/04/13 02:14:12;;;;;;;;;;;;;;;3.75;66.94;98550.20;1642619;85;20174;-86
2022/04/13 02:16:39;;;;;;;;;;;;;;;3.61;66.99;98556.38;1633076;88;22051;-83
2022/04/13 02:19:11;;;;;;;;;;;;;;;3.49;67.07;98552.52;1632798;88;26009;-83
2022/04/13 02:21:39;;;;;;;;;;;;;;;3.41;67.21;98553.30;1633122;87;25170;-86
2022/04/13 02:24:05;;;;;;;;;;;;;;;3.33;67.40;98558.75;1632973;88;20563;-86
2022/04/13 02:26:31;;;;;;;;;;;;;;;3.27;67.60;98561.57;1632924;88;25008;-87
2022/04/13 02:28:57;;;;;;;;;;;;;;;3.30;67.91;98564.50;1632610;88;20325;-84
2022/04/13 02:31:23;;;;;;;;;;;;;;;3.46;68.40;98572.06;1632983;88;21152;-86
2022/04/13 02:33:53;;;;;;;;;;;;;;;3.51;68.71;98571.42;1632862;88;25188;-86
2022/04/13 02:36:19;;;;;;;;;;;;;;;3.52;68.94;98575.70;1632725;87;20233;-86
2022/04/13 02:38:45;;;;;;;;;;;;;;;3.57;69.21;98580.70;1633318;88;25068;-86
2022/04/13 02:41:11;;;;;;;;;;;;;;;3.56;69.42;98585.02;1633120;88;20281;-86
2022/04/13 02:43:48;;;;;;;;;;;;;;;3.58;69.60;98583.68;1633509;88;26008;-87
2022/04/13 02:46:14;;;;;;;;;;;;;;;3.65;69.84;98582.09;1631288;88;24753;-87
2022/04/13 02:48:47;;;;;;;;;;;;;;;3.76;70.14;98580.38;1633159;88;20243;-87
2022/04/13 02:51:13;;;;;;;;;;;;;;;3.78;70.29;98574.66;1632944;88;25088;-87
2022/04/13 02:53:39;;;;;;;;;;;;;;;3.72;70.33;98575.75;1629733;88;20260;-86
2022/04/13 02:56:05;;;;;;;;;;;;;;;3.64;70.31;98579.56;1598587;89;26210;-86
2022/04/13 02:58:31;;;;;;;;;;;;;;;3.58;70.29;98590.14;1598135;89;20247;-86
2022/04/13 03:00:57;;;;;;;;;;;;;;;3.50;70.30;98589.59;1597874;88;20226;-85
2022/04/13 03:03:23;;;;;;;;;;;;;;;3.50;70.39;98593.02;1597289;88;20813;-85
2022/04/13 03:05:52;;;;;;;;;;;;;;;3.50;70.50;98588.30;1598415;89;21914;-83
2022/04/13 03:08:19;;;;;;;;;;;;;;;3.52;70.64;98591.67;1606116;88;26032;-85
2022/04/13 03:10:45;;;;;;;;;;;;;;;3.51;70.74;98591.28;1607710;88;24636;-87
2022/04/13 03:13:11;;;;;;;;;;;;;;;3.55;70.95;98586.37;1608165;88;20856;-86
2022/04/13 03:15:38;;;;;;;;;;;;;;;3.56;71.10;98583.73;1609958;88;24964;-83
2022/04/13 03:18:05;;;;;;;;;;;;;;;3.59;71.25;98589.25;1580565;90;22001;-83
2022/04/13 03:20:32;;;;;;;;;;;;;;;3.48;71.30;98586.23;1599652;89;25998;-83
2022/04/13 03:23:02;;;;;;;;;;;;;;;3.36;71.29;98588.39;1599665;89;24515;-83
2022/04/13 03:25:28;;;;;;;;;;;;;;;3.28;71.35;98581.81;1598038;89;20270;-85
2022/04/13 03:27:54;;;;;;;;;;;;;;;3.28;71.50;98581.36;1599556;89;25008;-86
2022/04/13 03:30:23;;;;;;;;;;;;;;;3.29;71.69;98588.67;1599985;89;20260;-86
2022/04/13 03:32:54;;;;;;;;;;;;;;;3.19;71.75;98589.93;1598559;89;26052;-86
2022/04/13 03:35:17;;;;;;;;;;;;;;;3.10;71.85;98592.42;1592002;89;24371;-85
2022/04/13 03:37:43;;;;;;;;;;;;;;;3.01;71.93;98590.61;1593021;89;20920;-82
2022/04/13 03:40:10;;;;;;;;;;;;;;;3.04;72.14;98598.27;1593806;89;24948;-82
2022/04/13 03:42:36;;;;;;;;;;;;;;;3.12;72.50;98600.95;1595315;89;22065;-83
2022/04/13 03:45:05;;;;;;;;;;;;;;;3.28;72.90;98602.50;1594172;89;26025;-83
2022/04/13 03:47:31;;;;;;;;;;;;;;;3.40;73.26;98599.45;1593766;89;24407;-86
2022/04/13 03:49:58;;;;;;;;;;;;;;;3.46;73.50;98609.57;1594223;89;20260;-86
2022/04/13 03:52:24;;;;;;;;;;;;;;;3.38;73.55;98595.62;1593437;89;25008;-86
2022/04/13 03:54:52;;;;;;;;;;;;;;;3.27;73.56;98607.31;1604351;88;20258;-84
2022/04/13 03:57:18;;;;;;;;;;;;;;;3.29;73.72;98617.12;1632194;88;26073;-85
2022/04/13 03:59:47;;;;;;;;;;;;;;;3.39;74.00;98614.58;1632648;88;20298;-85
2022/04/13 04:02:14;;;;;;;;;;;;;;;3.45;74.21;98616.09;1632481;88;20262;-82
2022/04/13 04:04:41;;;;;;;;;;;;;;;3.38;74.22;98621.13;1632361;88;25717;-82
2022/04/13 04:07:07;;;;;;;;;;;;;;;3.33;74.29;98616.95;1632519;88;21998;-86
2022/04/13 04:09:33;;;;;;;;;;;;;;;3.24;74.28;98620.34;1632908;88;26092;-85
2022/04/13 04:11:59;;;;;;;;;;;;;;;3.07;74.21;98622.70;1632275;88;20886;-85
2022/04/13 04:14:27;;;;;;;;;;;;;;;2.94;74.19;98619.30;1631063;88;20285;-86
2022/04/13 04:16:53;;;;;;;;;;;;;;;2.87;74.26;98618.27;1631100;88;25925;-83
2022/04/13 04:19:19;;;;;;;;;;;;;;;2.85;74.44;98627.36;1632406;88;20267;-86
2022/04/13 04:21:45;;;;;;;;;;;;;;;2.94;74.80;98627.49;1632734;88;26137;-86
2022/04/13 04:24:11;;;;;;;;;;;;;;;3.09;75.22;98625.64;1632445;88;20949;-86
2022/04/13 04:26:37;;;;;;;;;;;;;;;3.13;75.48;98631.53;1642712;87;20884;-85
2022/04/13 04:29:03;;;;;;;;;;;;;;;3.04;75.56;98626.26;1612807;88;24943;-85
2022/04/13 04:34:14;;;;;;;;;;;;;;;3.23;76.19;98627.25;1606142;89;26046;-86
2022/04/13 04:36:40;;;;;;;;;;;;;;;3.39;76.61;98628.80;1605814;89;20276;-84
2022/04/13 04:39:07;;;;;;;;;;;;;;;3.36;76.71;98631.52;1617059;88;20894;-83
2022/04/13 04:41:33;;;;;;;;;;;;;;;3.36;76.85;98623.77;1605328;89;25007;-86
2022/04/13 04:43:59;;;;;;;;;;;;;;;3.30;76.93;98622.25;1605370;89;21952;-86
2022/04/13 04:46:25;;;;;;;;;;;;;;;3.44;77.24;98619.13;1623019;88;25978;-85
2022/04/13 04:48:54;;;;;;;;;;;;;;;3.56;77.55;98620.41;1623234;87;24594;-85
2022/04/13 04:51:21;;;;;;;;;;;;;;;3.61;77.77;98622.36;1637256;87;20190;-83
2022/04/13 04:53:47;;;;;;;;;;;;;;;3.69;77.96;98619.03;1640064;87;24971;-84
2022/04/13 04:56:14;;;;;;;;;;;;;;;3.82;78.22;98618.11;1625572;85;22001;-83
2022/04/13 04:58:40;;;;;;;;;;;;;;;3.92;78.47;98621.56;1621970;88;26670;-83
2022/04/13 05:01:06;;;;;;;;;;;;;;;4.04;78.69;98622.34;1619822;88;24475;-83
2022/04/13 05:03:33;;;;;;;;;;;;;;;4.00;78.74;98614.77;1621408;88;20770;-84
2022/04/13 05:05:59;;;;;;;;;;;;;;;3.98;78.84;98623.88;1622701;88;25218;-87
2022/04/13 05:08:25;;;;;;;;;;;;;;;4.13;79.22;98620.69;1619214;88;20297;-86
2022/04/13 05:10:51;;;;;;;;;;;;;;;4.24;79.50;98626.72;1620763;88;21043;-85
2022/04/13 05:13:17;;;;;;;;;;;;;;;4.34;79.66;98629.31;1619736;88;20296;-85
2022/04/13 05:15:44;;;;;;;;;;;;;;;4.42;79.75;98634.19;1578665;89;20222;-85
2022/04/13 05:18:10;;;;;;;;;;;;;;;4.50;79.88;98636.84;1621016;88;25039;-85
2022/04/13 05:20:36;;;;;;;;;;;;;;;4.59;79.94;98641.62;1622103;88;20291;-84
2022/04/13 05:23:02;;;;;;;;;;;;;;;4.63;79.96;98643.20;1620815;88;21055;-84
2022/04/13 05:25:28;;;;;;;;;;;;;;;4.64;79.98;98650.04;1621797;88;24411;-84
2022/04/13 05:27:54;;;;;;;;;;;;;;;4.62;79.98;98653.63;1621377;88;20551;-84
2022/04/13 05:30:21;;;;;;;;;;;;;;;4.62;80.00;98657.51;1620936;88;25032;-85
2022/04/13 05:32:49;;;;;;;;;;;;;;;4.70;80.17;98659.30;1621124;88;22070;-84
2022/04/13 05:35:16;;;;;;;;;;;;;;;4.83;80.41;98660.48;1619393;88;26155;-83
2022/04/13 05:37:46;;;;;;;;;;;;;;;5.02;80.73;98660.05;1619200;88;24524;-82
2022/04/13 05:40:12;;;;;;;;;;;;;;;5.25;81.08;98660.78;1620517;88;20273;-82
2022/04/13 05:42:38;;;;;;;;;;;;;;;5.44;81.38;98663.80;1619359;88;20717;-82
2022/04/13 05:45:05;;;;;;;;;;;;;;;5.43;81.38;98663.86;1618526;88;20273;-83
2022/04/13 05:47:31;;;;;;;;;;;;;;;5.51;81.53;98667.42;1619090;88;26052;-83
2022/04/13 05:49:56;;;;;;;;;;;;;;;5.57;81.62;98673.59;1621839;88;20268;-83
2022/04/13 05:52:22;;;;;;;;;;;;;;;5.60;81.54;98666.98;1623680;87;20343;-83
2022/04/13 05:54:48;;;;;;;;;;;;;;;5.68;81.53;98666.16;1594256;87;20233;-84
2022/04/13 05:57:14;;;;;;;;;;;;;;;5.70;81.43;98670.84;1616163;88;22081;-83
2022/04/13 05:59:40;;;;;;;;;;;;;;;5.71;81.35;98675.13;1616980;88;26015;-82
2022/04/13 06:02:12;;;;;;;;;;;;;;;5.76;81.39;98672.70;1616825;88;20283;-85
2022/04/13 06:04:38;;;;;;;;;;;;;;;5.77;81.46;98671.79;1634094;86;20352;-85
2022/04/13 06:07:04;;;;;;;;;;;;;;;5.80;81.48;98681.17;1618377;88;24977;-85
2022/04/13 06:09:30;;;;;;;;;;;;;;;5.83;81.60;98678.45;1624094;88;20821;-83
2022/04/13 06:11:56;;;;;;;;;;;;;;;5.90;81.73;98683.75;1623990;88;20996;-84
2022/04/13 06:14:22;;;;;;;;;;;;;;;6.00;81.91;98682.41;1623780;88;20327;-83
2022/04/13 06:16:48;;;;;;;;;;;;;;;6.05;82.06;98690.00;1623662;88;20271;-86
2022/04/13 06:19:19;;;;;;;;;;;;;;;6.12;82.35;98683.58;1611056;87;20226;-85
2022/04/13 06:21:45;;;;;;;;;;;;;;;6.08;82.45;98688.09;1622643;88;22180;-82
2022/04/13 06:24:12;;;;;;;;;;;;;;;6.02;82.48;98687.08;1623665;88;26046;-83
2022/04/13 06:26:38;;;;;;;;;;;;;;;6.00;82.52;98690.20;1623758;88;24430;-85
2022/04/13 06:29:05;;;;;;;;;;;;;;;5.98;82.59;98702.44;1623604;88;20439;-82
2022/04/13 06:31:31;;;;;;;;;;;;;;;6.01;82.70;98700.13;1623675;88;24976;-86
2022/04/13 06:33:57;;;;;;;;;;;;;;;6.10;82.89;98708.81;1623922;88;21937;-84
2022/04/13 06:36:23;;;;;;;;;;;;;;;6.22;83.34;98706.91;1623656;88;25957;-84
2022/04/13 06:38:49;;;;;;;;;;;;;;;6.29;83.77;98703.95;1623762;88;24459;-86
2022/04/13 06:41:15;;;;;;;;;;;;;;;6.35;84.08;98704.11;1623796;87;20316;-83
2022/04/13 06:43:41;;;;;;;;;;;;;;;6.43;84.42;98707.20;1623662;88;24974;-83
2022/04/13 06:46:08;;;;;;;;;;;;;;;6.51;84.75;98701.60;1624193;88;22063;-84
2022/04/13 06:48:34;;;;;;;;;;;;;;;6.59;84.96;98709.88;1623806;88;26062;-84
2022/04/13 06:51:00;;;;;;;;;;;;;;;6.65;85.15;98710.42;1623640;88;24416;-86
2022/04/13 06:53:26;;;;;;;;;;;;;;;6.71;85.24;98704.89;1624074;88;20216;-82
2022/04/13 06:55:57;;;;;;;;;;;;;;;6.79;85.36;98705.83;1621988;88;24945;-86
2022/04/13 06:58:21;;;;;;;;;;;;;;;6.88;85.54;98708.41;1608890;87;22206;-86
2022/04/13 07:00:49;;;;;;;;;;;;;;;6.98;85.75;98712.25;1609634;88;21248;-82
2022/04/13 07:03:15;;;;;;;;;;;;;;;7.08;85.99;98713.00;1613379;88;25922;-82
2022/04/13 07:05:41;;;;;;;;;;;;;;;7.18;86.23;98709.92;1611552;88;20523;-82
2022/04/13 07:08:08;;;;;;;;;;;;;;;7.28;86.28;98713.72;1615162;88;24997;-82
2022/04/13 07:10:34;;;;;;;;;;;;;;;7.36;86.30;98718.08;1612162;88;22159;-83
2022/04/13 07:13:00;;;;;;;;;;;;;;;7.45;86.14;98718.89;1610489;88;26075;-82
2022/04/13 07:15:29;;;;;;;;;;;;;;;7.54;86.11;98717.09;1613182;88;24545;-82
2022/04/13 07:17:55;;;;;;;;;;;;;;;7.65;86.18;98719.13;1610236;88;20667;-82
2022/04/13 07:20:21;;;;;;;;;;;;;;;7.75;86.22;98722.45;1617673;88;25035;-82
2022/04/13 07:22:48;;;;;;;;;;;;;;;7.85;86.06;98726.28;1616752;88;22070;-83
2022/04/13 07:25:17;;;;;;;;;;;;;;;7.94;85.87;98732.28;1619274;88;26069;-82
2022/04/13 07:27:43;;;;;;;;;;;;;;;8.05;85.75;98732.15;1614915;88;24516;-83
2022/04/13 07:30:11;;;;;;;;;;;;;;;8.11;85.48;98724.84;1613815;88;20210;-83
2022/04/13 07:32:37;;;;;;;;;;;;;;;8.25;85.55;98728.81;1611629;88;25042;-84
2022/04/13 07:35:03;;;;;;;;;;;;;;;8.34;85.49;98737.94;1614945;88;22027;-84
2022/04/13 07:37:31;;;;;;;;;;;;;;;8.40;85.33;98737.57;1609315;88;25998;-85
2022/04/13 07:39:57;;;;;;;;;;;;;;;8.45;85.25;98736.03;1613673;88;25385;-84
2022/04/13 07:42:26;;;;;;;;;;;;;;;8.52;85.27;98734.73;1618200;88;20469;-85
2022/04/13 07:44:56;;;;;;;;;;;;;;;8.64;85.46;98736.20;1607217;87;26342;-84
2022/04/13 07:47:24;;;;;;;;;;;;;;;8.77;85.71;98739.80;1617435;88;22763;-85
2022/04/13 07:49:49;;;;;;;;;;;;;;;8.86;85.85;98736.27;1613178;88;26004;-86
2022/04/13 07:52:16;;;;;;;;;;;;;;;8.97;86.08;98736.48;1617049;88;20840;-86
2022/04/13 07:54:44;;;;;;;;;;;;;;;9.08;86.19;98736.23;1608067;87;20357;-86
2022/04/13 07:57:10;;;;;;;;;;;;;;;9.23;86.40;98735.77;1604451;88;25837;-86
2022/04/13 07:59:36;;;;;;;;;;;;;;;9.34;86.55;98732.06;1607644;89;22090;-84
2022/04/13 08:02:04;;;;;;;;;;;;;;;9.50;86.72;98738.03;1607912;89;25977;-85
2022/04/13 08:04:30;;;;;;;;;;;;;;;9.61;86.81;98731.70;1607676;87;25199;-83
2022/04/13 08:06:56;;;;;;;;;;;;;;;9.73;86.75;98735.80;1607671;89;21542;-84
2022/04/13 08:09:26;;;;;;;;;;;;;;;9.85;86.77;98729.35;1607910;89;20258;-86
2022/04/13 08:11:52;;;;;;;;;;;;;;;9.95;86.73;98729.14;1607688;88;22133;-85
2022/04/13 08:14:19;;;;;;;;;;;;;;;10.05;86.73;98725.02;1607853;88;26366;-86
2022/04/13 08:16:45;;;;;;;;;;;;;;;10.19;86.76;98725.97;1607628;89;24601;-86
2022/04/13 08:19:11;;;;;;;;;;;;;;;10.29;86.69;98725.28;1607599;88;20613;-86
2022/04/13 08:21:38;;;;;;;;;;;;;;;10.42;86.70;98727.45;1607380;89;25009;-86
2022/04/13 08:24:05;;;;;;;;;;;;;;;10.56;86.72;98723.96;1607506;89;21584;-86
2022/04/13 08:26:31;;;;;;;;;;;;;;;10.69;86.70;98718.28;1608403;87;26080;-86
2022/04/13 08:29:01;;;;;;;;;;;;;;;10.84;86.63;98721.69;1607563;87;24601;-83
2022/04/13 08:31:25;;;;;;;;;;;;;;;10.96;86.57;98726.11;1607760;88;20794;-83
2022/04/13 08:33:51;;;;;;;;;;;;;;;11.05;86.32;98722.88;1606200;89;20299;-86
2022/04/13 08:36:21;;;;;;;;;;;;;;;11.15;86.10;98721.30;1607726;87;20327;-85
2022/04/13 08:38:47;;;;;;;;;;;;;;;11.26;85.87;98720.58;1606180;89;26614;-84
2022/04/13 08:41:19;;;;;;;;;;;;;;;11.38;85.56;98720.21;1607789;89;25299;-86
2022/04/13 08:43:48;;;;;;;;;;;;;;;11.47;85.23;98716.48;1607767;89;20316;-87
2022/04/13 08:46:15;;;;;;;;;;;;;;;11.55;84.67;98715.97;1605239;88;25062;-86
2022/04/13 08:48:43;;;;;;;;;;;;;;;11.62;84.12;98711.95;1607702;89;22008;-86
2022/04/13 08:51:11;;;;;;;;;;;;;;;11.71;83.65;98713.95;1607484;89;26221;-86
2022/04/13 08:53:39;;;;;;;;;;;;;;;11.84;83.43;98715.28;1607479;88;24510;-84
2022/04/13 08:56:08;;;;;;;;;;;;;;;11.94;82.98;98710.59;1607441;87;20503;-86
2022/04/13 08:58:39;;;;;;;;;;;;;;;12.04;82.48;98707.67;1607485;89;25010;-86
2022/04/13 09:01:07;;;;;;;;;;;;;;;12.12;81.73;98704.48;1606422;89;22051;-83
2022/04/13 09:03:41;;;;;;;;;;;;;;;12.20;81.03;98704.78;1606007;88;25948;-83
2022/04/13 09:06:10;;;;;;;;;;;;;;;12.31;80.46;98702.70;1605811;89;24470;-83
2022/04/13 09:08:47;;;;;;;;;;;;;;;12.39;79.74;98698.55;1607641;89;20331;-83
2022/04/13 09:11:14;;;;;;;;;;;;;;;12.48;79.17;98700.52;1621010;88;25203;-87
2022/04/13 09:13:40;;;;;;;;;;;;;;;12.56;78.13;98698.63;1590993;90;21941;-83
2022/04/13 09:16:10;;;;;;;;;;;;;;;12.63;77.09;98696.39;1592364;90;25954;-84
2022/04/13 09:18:38;;;;;;;;;;;;;;;12.61;76.00;98686.47;1608272;88;24596;-82
2022/04/13 09:21:04;;;;;;;;;;;;;;;12.76;75.20;98693.23;1596595;89;20229;-85
2022/04/13 09:23:30;;;;;;;;;;;;;;;12.86;74.37;98697.68;1620714;88;24979;-85
2022/04/13 09:25:57;;;;;;;;;;;;;;;12.90;73.47;98693.87;1618662;88;20420;-87
2022/04/13 09:28:23;;;;;;;;;;;;;;;12.95;72.58;98696.98;1617453;88;26713;-87
2022/04/13 09:30:49;;;;;;;;;;;;;;;12.98;71.50;98693.30;1619696;88;24491;-87
2022/04/13 09:33:15;;;;;;;;;;;;;;;13.07;70.67;98687.81;1615511;88;20292;-84
2022/04/13 09:35:45;;;;;;;;;;;;;;;13.14;70.19;98681.18;1616570;88;25209;-83
2022/04/13 09:38:16;;;;;;;;;;;;;;;13.24;69.83;98682.14;1617644;87;20879;-83
2022/04/13 09:40:44;;;;;;;;;;;;;;;13.33;69.55;98680.95;1621048;88;25975;-83
2022/04/13 09:43:11;;;;;;;;;;;;;;;13.42;69.00;98681.22;1622344;88;24480;-85
2022/04/13 09:45:41;;;;;;;;;;;;;;;13.50;68.41;98680.13;1618348;88;20214;-85
2022/04/13 09:48:07;;;;;;;;;;;;;;;13.58;68.03;98680.38;1596647;89;25166;-87
2022/04/13 09:50:33;;;;;;;;;;;;;;;13.64;67.50;98678.08;1609898;88;21872;-84
2022/04/13 09:53:03;;;;;;;;;;;;;;;13.73;67.08;98677.38;1608245;88;26182;-84
2022/04/13 09:55:28;;;;;;;;;;;;;;;13.87;66.89;98669.70;1606251;88;25183;-83
2022/04/13 09:58:05;;;;;;;;;;;;;;;13.96;66.57;98666.36;1613637;88;20361;-84
2022/04/13 10:00:34;;;;;;;;;;;;;;;14.03;65.98;98662.25;1632351;87;24980;-85
2022/04/13 10:03:09;;;;;;;;;;;;;;;14.08;65.33;98667.98;1618880;87;22041;-85
2022/04/13 10:05:35;;;;;;;;;;;;;;;14.10;64.41;98667.39;1623339;88;26083;-85
2022/04/13 10:08:02;;;;;;;;;;;;;;;14.17;63.98;98669.89;1623635;88;24519;-84
2022/04/13 10:10:28;;;;;;;;;;;;;;;14.27;63.81;98667.34;1623769;88;20657;-86
2022/04/13 10:12:55;;;;;;;;;;;;;;;14.31;63.21;98666.13;1621762;88;25584;-86
2022/04/13 10:15:21;;;;;;;;;;;;;;;14.41;62.90;98662.28;1623708;88;21965;-83
2022/04/13 10:17:48;;;;;;;;;;;;;;;14.49;62.70;98665.98;1623627;88;26043;-85
2022/04/13 10:20:16;;;;;;;;;;;;;;;14.58;62.37;98660.42;1623760;88;24427;-83
2022/04/13 10:23:03;;;;;;;;;;;;;;;14.66;62.04;98658.01;1623529;88;20576;-85
2022/04/13 10:25:31;;;;;;;;;;;;;;;14.72;61.33;98657.50;1622550;88;25010;-83
2022/04/13 10:27:59;;;;;;;;;;;;;;;14.71;60.43;98651.87;1623215;88;22172;-87
2022/04/13 10:30:27;;;;;;;;;;;;;;;14.78;60.30;98652.20;1623616;88;26712;-87
2022/04/13 10:32:57;;;;;;;;;;;;;;;14.85;59.93;98654.18;1623200;88;24412;-84
2022/04/13 10:35:24;;;;;;;;;;;;;;;14.89;59.53;98652.14;1623681;88;20184;-83
2022/04/13 10:37:56;;;;;;;;;;;;;;;14.89;59.08;98648.19;1623928;86;25060;-85
2022/04/13 10:40:24;;;;;;;;;;;;;;;14.98;58.92;98652.20;1623955;88;22132;-86
2022/04/13 10:42:51;;;;;;;;;;;;;;;15.06;58.57;98648.89;1623673;88;26805;-85
2022/04/13 10:45:19;;;;;;;;;;;;;;;15.04;58.08;98649.53;1623436;88;25183;-87
2022/04/13 10:47:53;;;;;;;;;;;;;;;15.13;57.94;98648.73;1623303;88;20237;-86
2022/04/13 10:50:27;;;;;;;;;;;;;;;15.15;57.51;98649.45;1623878;88;25085;-83
2022/04/13 10:52:51;;;;;;;;;;;;;;;15.22;57.38;98643.98;1623650;87;22008;-83
2022/04/13 10:55:18;;;;;;;;;;;;;;;15.23;56.83;98648.30;1622741;87;26731;-83
2022/04/13 10:57:52;;;;;;;;;;;;;;;15.29;56.63;98648.27;1646457;86;24524;-86
2022/04/13 11:00:19;;;;;;;;;;;;;;;15.34;56.26;98652.17;1622116;87;20763;-83
2022/04/13 11:02:51;;;;;;;;;;;;;;;15.42;56.10;98646.25;1623602;88;24957;-86
2022/04/13 11:05:17;;;;;;;;;;;;;;;15.52;55.93;98644.52;1624013;88;22008;-87
2022/04/13 11:07:44;;;;;;;;;;;;;;;15.57;55.75;98641.48;1624178;88;20997;-84
2022/04/13 11:10:16;;;;;;;;;;;;;;;15.65;55.55;98645.63;1623874;88;24708;-84
2022/04/13 11:12:42;;;;;;;;;;;;;;;15.63;55.00;98639.15;1623319;88;20227;-85
2022/04/13 11:15:09;;;;;;;;;;;;;;;15.68;54.75;98641.38;1621757;88;24974;-83
2022/04/13 11:17:46;;;;;;;;;;;;;;;15.71;54.44;98635.34;1624609;88;21985;-83
2022/04/13 11:20:16;;;;;;;;;;;;;;;15.75;54.25;98630.65;1622360;88;26086;-83
2022/04/13 11:22:43;;;;;;;;;;;;;;;15.81;53.97;98634.91;1622084;88;25241;-83
2022/04/13 11:25:09;;;;;;;;;;;;;;;15.85;53.68;98629.70;1622537;88;20372;-83
2022/04/13 11:27:51;;;;;;;;;;;;;;;15.92;53.52;98632.64;1623249;88;24975;-83
2022/04/13 11:30:22;;;;;;;;;;;;;;;16.02;53.26;98631.33;1622778;88;21923;-83
2022/04/13 11:32:49;;;;;;;;;;;;;;;16.07;53.04;98628.63;1619273;87;26776;-83
2022/04/13 11:35:24;;;;;;;;;;;;;;;16.13;52.86;98631.21;1623746;88;24458;-83
2022/04/13 11:37:56;;;;;;;;;;;;;;;16.14;52.52;98632.89;1623492;87;20256;-83
2022/04/13 11:40:21;;;;;;;;;;;;;;;16.23;52.43;98632.05;1620830;87;25045;-83
2022/04/13 11:42:52;;;;;;;;;;;;;;;16.29;52.33;98631.02;1623784;88;22498;-85
2022/04/13 11:45:19;;;;;;;;;;;;;;;16.27;51.77;98630.80;1623022;88;27335;-84
2022/04/13 11:47:58;;;;;;;;;;;;;;;16.15;51.03;98623.48;1621900;88;24521;-82
2022/04/13 11:50:29;;;;;;;;;;;;;;;16.08;50.82;98621.06;1623510;88;20478;-83
2022/04/13 11:53:14;;;;;;;;;;;;;;;16.14;50.50;98632.41;1623452;88;25162;-83
2022/04/13 11:55:44;;;;;;;;;;;;;;;16.16;50.27;98634.40;1623421;88;22326;-83
2022/04/13 11:58:20;;;;;;;;;;;;;;;16.16;49.95;98630.92;1623421;88;26620;-84
2022/04/13 12:00:50;;;;;;;;;;;;;;;16.19;49.90;98632.83;1645077;86;24472;-82
2022/04/13 12:03:21;;;;;;;;;;;;;;;16.23;49.73;98626.77;1618335;88;20568;-83
2022/04/13 12:05:51;;;;;;;;;;;;;;;16.26;49.50;98623.84;1641613;87;25071;-82
2022/04/13 12:08:25;;;;;;;;;;;;;;;16.28;49.24;98629.83;1619305;88;22054;-82
2022/04/13 12:10:52;;;;;;;;;;;;;;;16.28;49.00;98620.11;1646869;86;26103;-83
2022/04/13 12:13:18;;;;;;;;;;;;;;;16.28;48.65;98620.59;1645635;86;24513;-82
2022/04/13 12:15:46;;;;;;;;;;;;;;;16.34;48.51;98626.64;1639679;86;20904;-82
2022/04/13 12:18:21;;;;;;;;;;;;;;;16.43;48.49;98626.28;1617834;88;25105;-86
2022/04/13 12:20:48;;;;;;;;;;;;;;;16.55;48.59;98626.49;1612639;88;22038;-84
2022/04/13 12:23:25;;;;;;;;;;;;;;;16.57;48.22;98620.59;1641917;86;26030;-86
2022/04/13 12:25:55;;;;;;;;;;;;;;;16.63;48.14;98614.78;1638569;87;24455;-84
2022/04/13 12:28:23;;;;;;;;;;;;;;;16.79;48.21;98615.52;1646846;87;20280;-84
2022/04/13 12:31:03;;;;;;;;;;;;;;;16.88;48.04;98608.05;1641088;87;25053;-84
2022/04/13 12:33:31;;;;;;;;;;;;;;;17.00;48.05;98611.72;1650533;85;22041;-84
2022/04/13 12:36:07;;;;;;;;;;;;;;;17.09;47.88;98603.41;1620506;87;26001;-86
2022/04/13 12:38:37;;;;;;;;;;;;;;;16.98;47.38;98604.41;1640727;87;24415;-87
2022/04/13 12:41:08;;;;;;;;;;;;;;;17.00;47.30;98595.02;1622073;88;20299;-83
2022/04/13 12:43:34;;;;;;;;;;;;;;;17.07;47.18;98589.00;1618867;88;24990;-83
2022/04/13 12:46:19;;;;;;;;;;;;;;;17.08;46.94;98581.91;1615796;88;21952;-83
2022/04/13 12:48:47;;;;;;;;;;;;;;;17.14;46.83;98580.84;1610631;88;25647;-83
2022/04/13 12:51:15;;;;;;;;;;;;;;;17.16;46.57;98576.73;1613859;88;25173;-83
2022/04/13 12:53:44;;;;;;;;;;;;;;;17.12;46.18;98577.53;1616478;88;20238;-83
2022/04/13 12:56:13;;;;;;;;;;;;;;;17.12;45.90;98570.91;1619306;88;25052;-87
2022/04/13 12:58:39;;;;;;;;;;;;;;;17.12;45.66;98562.14;1628571;86;22044;-84